Time;durP1;ratioP1;P1;durP2;ratioP2;P2;SDS_P1;SDS_P2;PMS_P1;PMS_P2;Temp;Humidity;BMP_temperature;BMP_pressure;BME280_temperature;BME280_humidity;BME280_pressure;Samples;Min_cycle;Max_cycle;Signal;HPM_P1;HPM_P2
2022/04/05 00:00:38;;;;;;;24.73;21.58;;;;;;;-148.33;100.00;56587.81;5069617;28;20162;-58
2022/04/05 00:03:03;;;;;;;29.17;22.08;;;;;;;-148.33;100.00;56587.81;5069129;28;20055;-59
2022/04/05 00:05:29;;;;;;;26.88;20.58;;;;;;;-148.33;100.00;56587.81;5069618;28;20039;-60
2022/04/05 00:07:54;;;;;;;26.77;20.27;;;;;;;-148.33;100.00;56587.81;5069719;28;20074;-60
2022/04/05 00:10:21;;;;;;;24.27;18.02;;;;;;;-148.33;100.00;56587.81;5069383;28;20034;-60
2022/04/05 00:12:46;;;;;;;22.83;18.65;;;;;;;-148.33;100.00;56587.81;5069668;28;20034;-60
2022/04/05 00:15:12;;;;;;;22.05;18.63;;;;;;;-148.33;100.00;56587.81;5069349;28;20457;-60
2022/04/05 00:17:38;;;;;;;29.42;18.60;;;;;;;-148.33;100.00;56587.81;5069326;28;20039;-59
2022/04/05 00:20:04;;;;;;;21.45;16.92;;;;;;;-148.33;100.00;56587.81;5069479;28;20042;-59
2022/04/05 00:22:30;;;;;;;21.95;17.42;;;;;;;-148.33;100.00;56587.81;5049884;28;20473;-60
2022/04/05 00:24:55;;;;;;;23.25;17.58;;;;;;;-148.33;100.00;56587.81;5049526;28;20039;-60
2022/04/05 00:27:21;;;;;;;22.75;15.98;;;;;;;-148.33;100.00;56587.81;5050022;28;20051;-58
2022/04/05 00:29:46;;;;;;;22.67;16.30;;;;;;;-148.33;100.00;56587.81;5049995;28;20116;-60
2022/04/05 00:32:12;;;;;;;23.63;16.70;;;;;;;-148.33;100.00;56587.81;5049944;28;20377;-60
2022/04/05 00:34:38;;;;;;;21.48;15.93;;;;;;;-148.33;100.00;56587.81;5049529;28;20056;-60
2022/04/05 00:37:04;;;;;;;22.55;16.27;;;;;;;-148.33;100.00;56587.81;5050154;28;20037;-59
2022/04/05 00:39:29;;;;;;;22.42;15.68;;;;;;;-148.33;100.00;56587.81;5049654;28;20028;-59
2022/04/05 00:41:54;;;;;;;21.48;15.98;;;;;;;-148.33;100.00;56587.81;5049840;28;20442;-60
2022/04/05 00:44:20;;;;;;;21.45;16.63;;;;;;;-148.33;100.00;56587.81;5049662;28;20036;-59
2022/04/05 00:46:46;;;;;;;23.80;15.98;;;;;;;-148.33;100.00;56587.81;5065830;28;20115;-60
2022/04/05 00:49:16;;;;;;;23.70;14.48;;;;;;;-148.33;100.00;56587.81;5068280;28;20024;-59
2022/04/05 00:51:42;;;;;;;19.45;15.13;;;;;;;-148.33;100.00;56587.81;5068908;28;20020;-59
2022/04/05 00:54:10;;;;;;;20.95;14.88;;;;;;;-148.33;100.00;56587.81;5068533;28;20074;-60
2022/04/05 00:56:36;;;;;;;22.92;15.95;;;;;;;-148.33;100.00;56587.81;5068592;28;20059;-59
2022/04/05 00:59:02;;;;;;;20.75;14.55;;;;;;;-148.33;100.00;56587.81;5068635;28;20441;-59
2022/04/05 01:01:28;;;;;;;22.45;15.18;;;;;;;-148.33;100.00;56587.81;5068232;28;20071;-60
2022/04/05 01:03:54;;;;;;;19.80;16.48;;;;;;;-148.33;100.00;56587.81;5055519;28;20052;-59
2022/04/05 01:06:24;;;;;;;23.30;16.35;;;;;;;-148.33;100.00;56587.81;5068659;28;20457;-60
2022/04/05 01:08:50;;;;;;;17.05;14.57;;;;;;;-148.33;100.00;56587.81;5068352;28;20028;-59
2022/04/05 01:11:16;;;;;;;19.88;15.70;;;;;;;-148.33;100.00;56587.81;5068514;28;20013;-59
2022/04/05 01:13:41;;;;;;;21.02;15.40;;;;;;;-148.33;100.00;56587.81;5068205;28;20389;-59
2022/04/05 01:16:07;;;;;;;22.45;15.82;;;;;;;-148.33;100.00;56587.81;5068476;28;20027;-60
2022/04/05 01:18:34;;;;;;;22.27;15.60;;;;;;;-148.33;100.00;56587.81;5067776;28;20035;-58
2022/04/05 01:21:00;;;;;;;22.10;15.13;;;;;;;-148.33;100.00;56587.81;5068282;28;20028;-60
2022/04/05 01:23:25;;;;;;;20.90;15.55;;;;;;;-148.33;100.00;56587.81;5068382;28;20032;-60
2022/04/05 01:25:52;;;;;;;23.10;17.20;;;;;;;-148.33;100.00;56587.81;5067493;28;20028;-60
2022/04/05 01:28:18;;;;;;;21.98;17.02;;;;;;;-148.33;100.00;56587.81;5068380;28;20410;-60
2022/04/05 01:30:44;;;;;;;22.00;17.38;;;;;;;-148.33;100.00;56587.81;5068004;28;20476;-60
2022/04/05 01:33:09;;;;;;;22.30;18.27;;;;;;;-148.33;100.00;56587.81;5068356;28;20089;-60
2022/04/05 01:35:35;;;;;;;21.58;17.45;;;;;;;-148.33;100.00;56587.81;5048567;28;20245;-60
2022/04/05 01:38:04;;;;;;;25.90;17.15;;;;;;;-148.33;100.00;56587.81;5049038;28;20028;-60
2022/04/05 01:40:29;;;;;;;25.42;18.48;;;;;;;-148.33;100.00;56587.81;5056745;28;20032;-60
2022/04/05 01:42:55;;;;;;;21.70;16.70;;;;;;;-148.33;100.00;56587.81;5068204;28;20422;-60
2022/04/05 01:45:20;;;;;;;25.58;17.88;;;;;;;-148.33;100.00;56587.81;5067786;28;20168;-60
2022/04/05 01:47:48;;;;;;;21.02;17.33;;;;;;;-148.33;100.00;56587.81;5067320;28;20055;-60
2022/04/05 01:50:13;;;;;;;21.45;15.90;;;;;;;-148.33;100.00;56587.81;5067824;28;20036;-60
2022/04/05 01:52:39;;;;;;;20.95;17.45;;;;;;;-148.33;100.00;56587.81;5068052;28;20024;-60
2022/04/05 01:55:06;;;;;;;22.58;17.23;;;;;;;-148.33;100.00;56587.81;5067182;28;20020;-60
2022/04/05 01:57:31;;;;;;;22.38;16.27;;;;;;;-148.33;100.00;56587.81;5067976;28;20024;-60
2022/04/05 01:59:56;;;;;;;19.83;15.93;;;;;;;-148.33;100.00;56587.81;5064338;28;20035;-60
2022/04/05 02:02:22;;;;;;;24.35;15.95;;;;;;;-148.33;100.00;56587.81;5048493;28;20049;-60
2022/04/05 02:04:47;;;;;;;21.30;16.73;;;;;;;-148.33;100.00;56587.81;5049817;28;20025;-60
2022/04/05 02:07:14;;;;;;;21.13;16.65;;;;;;;-148.33;100.00;56587.81;5052483;28;20230;-60
2022/04/05 02:09:39;;;;;;;23.92;18.05;;;;;;;-148.33;100.00;56587.81;5052806;28;20024;-60
2022/04/05 02:12:05;;;;;;;18.90;16.85;;;;;;;-148.33;100.00;56587.81;5052911;28;20033;-60
2022/04/05 02:14:31;;;;;;;25.15;17.45;;;;;;;-148.33;100.00;56587.81;5052913;28;20024;-59
2022/04/05 02:16:56;;;;;;;22.75;16.33;;;;;;;-148.33;100.00;56587.81;5052657;28;20381;-60
2022/04/05 02:19:22;;;;;;;20.50;16.40;;;;;;;-148.33;100.00;56587.81;5051813;28;20025;-59
2022/04/05 02:21:47;;;;;;;19.90;17.38;;;;;;;-148.33;100.00;56587.81;5052475;28;20029;-60
2022/04/05 02:24:12;;;;;;;17.17;15.45;;;;;;;-148.33;100.00;56587.81;5052158;28;20029;-60
2022/04/05 02:26:38;;;;;;;17.08;15.38;;;;;;;-148.33;100.00;56587.81;5052199;28;20021;-60
2022/04/05 02:29:03;;;;;;;18.30;15.10;;;;;;;-148.33;100.00;56587.81;5052244;28;20025;-59
2022/04/05 02:31:28;;;;;;;17.30;14.43;;;;;;;-148.33;100.00;56587.81;5052172;28;20107;-60
2022/04/05 02:33:54;;;;;;;23.33;16.05;;;;;;;-148.33;100.00;56587.81;5052348;28;20062;-59
2022/04/05 02:36:19;;;;;;;19.42;15.25;;;;;;;-148.33;100.00;56587.81;5052488;28;20052;-60
2022/04/05 02:38:44;;;;;;;16.55;14.88;;;;;;;-148.33;100.00;56587.81;5052188;28;20083;-59
2022/04/05 02:41:10;;;;;;;20.23;15.57;;;;;;;-148.33;100.00;56587.81;5052182;28;20027;-60
2022/04/05 02:43:35;;;;;;;19.60;14.10;;;;;;;-148.33;100.00;56587.81;5052088;28;20056;-60
2022/04/05 02:46:00;;;;;;;19.15;14.35;;;;;;;-148.33;100.00;56587.81;5051488;28;20473;-61
2022/04/05 02:48:26;;;;;;;18.77;14.98;;;;;;;-148.33;100.00;56587.81;5051923;28;20057;-60
2022/04/05 02:50:51;;;;;;;22.05;14.18;;;;;;;-148.33;100.00;56587.81;5051963;28;20079;-60
2022/04/05 02:53:18;;;;;;;17.25;14.27;;;;;;;-148.33;100.00;56587.81;5051947;28;20021;-60
2022/04/05 02:55:44;;;;;;;16.27;14.02;;;;;;;-148.33;100.00;56587.81;5050973;28;20021;-60
2022/04/05 02:58:09;;;;;;;19.67;14.65;;;;;;;-148.33;100.00;56587.81;5051823;28;20112;-60
2022/04/05 03:00:35;;;;;;;22.98;14.23;;;;;;;-148.33;100.00;56587.81;5033452;28;20074;-60
2022/04/05 03:03:01;;;;;;;18.23;13.55;;;;;;;-148.33;100.00;56587.81;5051957;28;20401;-59
2022/04/05 03:05:26;;;;;;;18.75;13.98;;;;;;;-148.33;100.00;56587.81;5051372;28;20027;-60
2022/04/05 03:07:51;;;;;;;16.70;14.73;;;;;;;-148.33;100.00;56587.81;5051584;28;20021;-58
2022/04/05 03:10:17;;;;;;;17.92;14.00;;;;;;;-148.33;100.00;56587.81;5051679;28;20036;-60
2022/04/05 03:12:42;;;;;;;17.48;13.93;;;;;;;-148.33;100.00;56587.81;5050907;28;20033;-60
2022/04/05 03:15:09;;;;;;;16.30;14.73;;;;;;;-148.33;100.00;56587.81;5051443;28;20025;-60
2022/04/05 03:17:40;;;;;;;18.48;13.77;;;;;;;-148.33;100.00;56587.81;5051152;28;20095;-60
2022/04/05 03:20:06;;;;;;;15.90;13.95;;;;;;;-148.33;100.00;56587.81;5051000;28;20016;-60
2022/04/05 03:22:31;;;;;;;17.17;13.55;;;;;;;-148.33;100.00;56587.81;5051081;28;20029;-60
2022/04/05 03:24:57;;;;;;;16.92;14.85;;;;;;;-148.33;100.00;56587.81;5051285;28;20469;-60
2022/04/05 03:27:22;;;;;;;17.05;13.38;;;;;;;-148.33;100.00;56587.81;5050776;28;20048;-59
2022/04/05 03:29:47;;;;;;;19.13;14.07;;;;;;;-148.33;100.00;56587.81;5050962;28;20029;-61
2022/04/05 03:32:13;;;;;;;19.08;14.73;;;;;;;-148.33;100.00;56587.81;5050887;28;20028;-60
2022/04/05 03:34:39;;;;;;;19.85;14.43;;;;;;;-148.33;100.00;56587.81;5050754;28;20469;-59
2022/04/05 03:37:05;;;;;;;17.50;13.40;;;;;;;-148.33;100.00;56587.81;5050354;28;20032;-60
2022/04/05 03:39:31;;;;;;;21.38;14.90;;;;;;;-148.33;100.00;56587.81;5050841;28;20378;-60
2022/04/05 03:41:57;;;;;;;15.85;13.25;;;;;;;-148.33;100.00;56587.81;5051316;28;20027;-60
2022/04/05 03:44:23;;;;;;;17.63;14.27;;;;;;;-148.33;100.00;56587.81;5050883;28;20029;-60
2022/04/05 03:46:48;;;;;;;16.52;14.30;;;;;;;-148.33;100.00;56587.81;5050242;28;20534;-60
2022/04/05 03:49:13;;;;;;;20.45;15.43;;;;;;;-148.33;100.00;56587.81;5050777;28;20032;-58
2022/04/05 03:51:39;;;;;;;16.88;15.05;;;;;;;-148.33;100.00;56587.81;5050838;28;20082;-60
2022/04/05 03:54:04;;;;;;;17.52;14.15;;;;;;;-148.33;100.00;56587.81;5050266;28;20136;-60
2022/04/05 03:56:29;;;;;;;16.15;13.98;;;;;;;-148.33;100.00;56587.81;5050398;28;20028;-60
2022/04/05 03:58:55;;;;;;;18.90;14.82;;;;;;;-148.33;100.00;56587.81;5050104;28;20078;-60
2022/04/05 04:01:20;;;;;;;17.20;14.95;;;;;;;-148.33;100.00;56587.81;5066072;28;20039;-59
2022/04/05 04:03:46;;;;;;;18.67;14.65;;;;;;;-148.33;100.00;56587.81;5069472;28;20083;-60
2022/04/05 04:06:11;;;;;;;18.00;13.80;;;;;;;-148.33;100.00;56587.81;5069772;28;20025;-60
2022/04/05 04:08:36;;;;;;;15.55;13.70;;;;;;;-148.33;100.00;56587.81;5069437;28;20115;-60
2022/04/05 04:11:02;;;;;;;19.13;13.45;;;;;;;-148.33;100.00;56587.81;5050819;28;20028;-58
2022/04/05 04:13:28;;;;;;;21.17;14.90;;;;;;;-148.33;100.00;56587.81;5069430;28;20388;-60
2022/04/05 04:15:53;;;;;;;18.67;13.65;;;;;;;-148.33;100.00;56587.81;5069326;28;20099;-60
2022/04/05 04:18:19;;;;;;;17.73;13.63;;;;;;;-148.33;100.00;56587.81;5068640;28;20020;-59
2022/04/05 04:20:44;;;;;;;17.50;14.25;;;;;;;-148.33;100.00;56587.81;5049972;28;20270;-60
2022/04/05 04:23:10;;;;;;;17.85;13.98;;;;;;;-148.33;100.00;56587.81;5049805;28;20032;-60
2022/04/05 04:25:37;;;;;;;19.38;13.50;;;;;;;-148.33;100.00;56587.81;5069228;28;20064;-60
2022/04/05 04:28:10;;;;;;;16.02;13.02;;;;;;;-148.33;100.00;56587.81;5067545;28;20119;-59
2022/04/05 04:30:37;;;;;;;18.58;13.65;;;;;;;-148.33;100.00;56587.81;5055243;28;20107;-60
2022/04/05 04:33:03;;;;;;;16.20;13.70;;;;;;;-148.33;100.00;56587.81;5069453;28;20078;-58
2022/04/05 04:35:29;;;;;;;16.13;13.77;;;;;;;-148.33;100.00;56587.81;5069586;28;20460;-60
2022/04/05 04:37:55;;;;;;;16.92;13.02;;;;;;;-148.33;100.00;56587.81;5069171;28;20503;-61
2022/04/05 04:40:21;;;;;;;15.73;12.57;;;;;;;-148.33;100.00;56587.81;5068419;28;20107;-60
2022/04/05 04:42:47;;;;;;;14.35;12.60;;;;;;;-148.33;100.00;56587.81;5069268;28;20457;-60
2022/04/05 04:45:13;;;;;;;16.08;12.50;;;;;;;-148.33;100.00;56587.81;5068756;28;20036;-60
2022/04/05 04:47:39;;;;;;;15.63;13.23;;;;;;;-148.33;100.00;56587.81;5068992;28;20089;-60
2022/04/05 04:50:05;;;;;;;14.02;12.57;;;;;;;-148.33;100.00;56587.81;5068038;28;20024;-60
2022/04/05 04:52:30;;;;;;;15.05;12.52;;;;;;;-148.33;100.00;56587.81;5068690;28;20040;-60
2022/04/05 04:54:56;;;;;;;15.07;12.70;;;;;;;-148.33;100.00;56587.81;5068521;28;20020;-60
2022/04/05 04:57:23;;;;;;;14.65;13.18;;;;;;;-148.33;100.00;56587.81;5069228;28;20531;-59
2022/04/05 04:59:49;;;;;;;18.58;14.02;;;;;;;-148.33;100.00;56587.81;5068276;28;20051;-60
2022/04/05 05:02:15;;;;;;;13.65;12.20;;;;;;;-148.33;100.00;56587.81;5068623;28;20045;-59
2022/04/05 05:04:40;;;;;;;17.30;13.35;;;;;;;-148.33;100.00;56587.81;5068806;28;20020;-60
2022/04/05 05:07:05;;;;;;;17.10;13.35;;;;;;;-148.33;100.00;56587.81;5064268;28;20367;-59
2022/04/05 05:09:30;;;;;;;15.27;13.68;;;;;;;-148.33;100.00;56587.81;5047345;28;20021;-59
2022/04/05 05:11:56;;;;;;;16.27;14.48;;;;;;;-148.33;100.00;56587.81;5047904;28;20098;-60
2022/04/05 05:14:21;;;;;;;15.63;13.70;;;;;;;-148.33;100.00;56587.81;5047592;28;20033;-59
2022/04/05 05:16:46;;;;;;;17.77;13.93;;;;;;;-148.33;100.00;56587.81;5047548;28;20028;-60
2022/04/05 05:19:12;;;;;;;16.48;13.77;;;;;;;-148.33;100.00;56587.81;5047154;28;20025;-60
2022/04/05 05:21:37;;;;;;;16.45;14.75;;;;;;;-148.33;100.00;56587.81;5047918;28;20122;-59
2022/04/05 05:24:03;;;;;;;16.58;14.80;;;;;;;-148.33;100.00;56587.81;5047790;28;20429;-59
2022/04/05 05:26:28;;;;;;;15.55;13.95;;;;;;;-148.33;100.00;56587.81;5048435;28;20075;-60
2022/04/05 05:28:53;;;;;;;15.45;13.55;;;;;;;-148.33;100.00;56587.81;5048292;28;20075;-60
2022/04/05 05:31:19;;;;;;;16.40;13.52;;;;;;;-148.33;100.00;56587.81;5048479;28;20036;-60
2022/04/05 05:33:44;;;;;;;17.00;13.82;;;;;;;-148.33;100.00;56587.81;5048724;28;20561;-59
2022/04/05 05:36:09;;;;;;;14.02;12.63;;;;;;;-148.33;100.00;56587.81;5049256;28;20028;-60
2022/04/05 05:38:35;;;;;;;14.80;13.50;;;;;;;-148.33;100.00;56587.81;5049185;28;20028;-60
2022/04/05 05:41:00;;;;;;;15.02;13.13;;;;;;;-148.33;100.00;56587.81;5048918;28;20040;-60
2022/04/05 05:43:25;;;;;;;15.43;12.68;;;;;;;-148.33;100.00;56587.81;5048421;28;20361;-60
2022/04/05 05:45:51;;;;;;;14.85;13.35;;;;;;;-148.33;100.00;56587.81;5048718;28;20560;-60
2022/04/05 05:48:17;;;;;;;15.18;12.77;;;;;;;-148.33;100.00;56587.81;5048928;28;20024;-60
2022/04/05 05:50:42;;;;;;;14.60;13.20;;;;;;;-148.33;100.00;56587.81;5049203;28;20032;-60
2022/04/05 05:53:08;;;;;;;14.55;13.05;;;;;;;-148.33;100.00;56587.81;5048889;28;20061;-60
2022/04/05 05:55:35;;;;;;;17.67;14.55;;;;;;;-148.33;100.00;56587.81;5048952;28;20379;-62
2022/04/05 05:58:02;;;;;;;15.75;14.15;;;;;;;-148.33;100.00;56587.81;5048342;28;20049;-58
2022/04/05 06:00:29;;;;;;;15.75;13.90;;;;;;;-148.33;100.00;56587.81;5049313;28;20440;-59
2022/04/05 06:03:01;;;;;;;15.50;13.90;;;;;;;-148.33;100.00;56587.81;5048590;28;20140;-59
2022/04/05 06:05:27;;;;;;;16.35;14.27;;;;;;;-148.33;100.00;56587.81;5048590;28;20036;-60
2022/04/05 06:07:53;;;;;;;19.25;15.20;;;;;;;-148.33;100.00;56587.81;5048393;28;20036;-59
2022/04/05 06:10:19;;;;;;;19.60;15.65;;;;;;;-148.33;100.00;56587.81;5048613;28;20116;-60
2022/04/05 06:12:47;;;;;;;17.33;15.02;;;;;;;-148.33;100.00;56587.81;5048636;28;20032;-60
2022/04/05 06:15:14;;;;;;;17.65;14.75;;;;;;;-148.33;100.00;56587.81;5048325;28;20025;-60
2022/04/05 06:17:41;;;;;;;16.85;15.15;;;;;;;-148.33;100.00;56587.81;5048668;28;20094;-57
2022/04/05 06:20:08;;;;;;;20.08;16.02;;;;;;;-148.33;100.00;56587.81;5048480;28;20060;-59
2022/04/05 06:22:47;;;;;;;19.40;15.15;;;;;;;-148.33;100.00;56587.81;5048466;28;20120;-59
2022/04/05 06:25:16;;;;;;;20.42;16.17;;;;;;;-148.33;100.00;56587.81;5048650;28;20025;-58
2022/04/05 06:27:42;;;;;;;18.63;16.45;;;;;;;-148.33;100.00;56587.81;5048873;28;20032;-59
2022/04/05 06:30:09;;;;;;;19.40;16.48;;;;;;;-148.33;100.00;56587.81;5048921;28;20503;-58
2022/04/05 06:32:35;;;;;;;16.67;14.85;;;;;;;-148.33;100.00;56587.81;5048041;28;20032;-58
2022/04/05 06:35:01;;;;;;;21.05;15.65;;;;;;;-148.33;100.00;56587.81;5048570;28;20039;-57
2022/04/05 06:37:26;;;;;;;19.58;15.68;;;;;;;-148.33;100.00;56587.81;5048887;28;20060;-60
2022/04/05 06:39:51;;;;;;;17.27;15.48;;;;;;;-148.33;100.00;56587.81;5048303;28;20025;-59
2022/04/05 06:42:17;;;;;;;17.05;13.93;;;;;;;-148.33;100.00;56587.81;5048572;28;20432;-60
2022/04/05 06:44:42;;;;;;;18.45;15.02;;;;;;;-148.33;100.00;56587.81;5048108;28;20024;-59
2022/04/05 06:47:11;;;;;;;16.30;13.20;;;;;;;-148.33;100.00;56587.81;5048539;28;20483;-61
2022/04/05 06:49:37;;;;;;;17.33;13.57;;;;;;;-148.33;100.00;56587.81;5048348;28;20476;-61
2022/04/05 06:52:02;;;;;;;19.33;12.80;;;;;;;-148.33;100.00;56587.81;5050687;28;20077;-60
2022/04/05 06:54:27;;;;;;;17.15;13.20;;;;;;;-148.33;100.00;56587.81;5052356;28;20059;-60
2022/04/05 06:56:53;;;;;;;18.70;13.55;;;;;;;-148.33;100.00;56587.81;5051448;28;20025;-60
2022/04/05 06:59:18;;;;;;;16.15;13.27;;;;;;;-148.33;100.00;56587.81;5052088;28;20432;-60
2022/04/05 07:01:43;;;;;;;15.07;12.02;;;;;;;-148.33;100.00;56587.81;5051466;28;20052;-60
2022/04/05 07:04:08;;;;;;;19.13;11.75;;;;;;;-148.33;100.00;56587.81;5051041;28;20027;-60
2022/04/05 07:06:35;;;;;;;15.40;12.48;;;;;;;-148.33;100.00;56587.81;5051969;28;20083;-60
2022/04/05 07:09:01;;;;;;;17.67;12.10;;;;;;;-148.33;100.00;56587.81;5071272;28;20479;-60
2022/04/05 07:11:26;;;;;;;12.95;11.65;;;;;;;-148.33;100.00;56587.81;5071009;28;20028;-61
2022/04/05 07:13:51;;;;;;;17.38;11.93;;;;;;;-148.33;100.00;56587.81;5071091;28;20407;-60
2022/04/05 07:16:17;;;;;;;15.50;10.43;;;;;;;-148.33;100.00;56587.81;5070230;28;20036;-61
2022/04/05 07:18:43;;;;;;;17.10;11.20;;;;;;;-148.33;100.00;56587.81;5070453;28;20078;-61
2022/04/05 07:21:08;;;;;;;15.18;10.82;;;;;;;-148.33;100.00;56587.81;5071037;28;20056;-61
2022/04/05 07:23:36;;;;;;;13.18;11.32;;;;;;;-148.33;100.00;56587.81;5070693;28;20115;-61
2022/04/05 07:26:02;;;;;;;15.73;11.23;;;;;;;-148.33;100.00;56587.81;5070634;28;20037;-59
2022/04/05 07:28:27;;;;;;;14.27;11.15;;;;;;;-148.33;100.00;56587.81;5069860;28;20032;-61
2022/04/05 07:30:52;;;;;;;18.45;11.30;;;;;;;-148.33;100.00;56587.81;5070830;28;20030;-60
2022/04/05 07:33:18;;;;;;;17.02;10.70;;;;;;;-148.33;100.00;56587.81;5070728;28;20029;-60
2022/04/05 07:35:44;;;;;;;17.58;10.57;;;;;;;-148.33;100.00;56587.81;5070277;28;20103;-60
2022/04/05 07:38:09;;;;;;;14.43;10.63;;;;;;;-148.33;100.00;56587.81;5069983;28;20039;-61
2022/04/05 07:40:50;;;;;;;14.35;10.40;;;;;;;-148.33;100.00;56587.81;5070302;28;20063;-60
2022/04/05 07:43:22;;;;;;;15.43;10.18;;;;;;;-148.33;100.00;56587.81;5070683;28;20025;-60
2022/04/05 07:45:49;;;;;;;13.90;10.05;;;;;;;-148.33;100.00;56587.81;5069992;28;20025;-60
2022/04/05 07:48:19;;;;;;;11.52;10.02;;;;;;;-148.33;100.00;56587.81;5070863;28;20111;-60
2022/04/05 07:50:45;;;;;;;13.90;9.43;;;;;;;-148.33;100.00;56587.81;5070064;28;20020;-61
2022/04/05 07:53:11;;;;;;;13.90;10.35;;;;;;;-148.33;100.00;56587.81;5070007;28;20166;-59
2022/04/05 07:55:36;;;;;;;13.40;10.20;;;;;;;-148.33;100.00;56587.81;5070596;28;20017;-60
2022/04/05 07:58:02;;;;;;;13.27;9.35;;;;;;;-148.33;100.00;56587.81;5069905;28;20117;-59
2022/04/05 08:00:28;;;;;;;14.77;9.40;;;;;;;-148.33;100.00;56587.81;5070216;28;20032;-60
2022/04/05 08:02:53;;;;;;;14.73;9.43;;;;;;;-148.33;100.00;56587.81;5068988;28;20495;-61
2022/04/05 08:05:19;;;;;;;11.95;9.43;;;;;;;-148.33;100.00;56587.81;5069653;28;20037;-60
2022/04/05 08:07:46;;;;;;;10.65;8.57;;;;;;;-148.33;100.00;56587.81;5069696;28;20035;-61
2022/04/05 08:10:13;;;;;;;13.05;9.77;;;;;;;-148.33;100.00;56587.81;5070299;28;20624;-60
2022/04/05 08:12:45;;;;;;;12.88;9.32;;;;;;;-148.33;100.00;56587.81;5069256;28;20072;-60
2022/04/05 08:15:13;;;;;;;12.70;9.00;;;;;;;-148.33;100.00;56587.81;5069897;28;20524;-61
2022/04/05 08:17:38;;;;;;;11.95;8.70;;;;;;;-148.33;100.00;56587.81;5069400;28;20154;-61
2022/04/05 08:20:05;;;;;;;11.57;8.55;;;;;;;-148.33;100.00;56587.81;5069639;28;20119;-60
2022/04/05 08:22:30;;;;;;;12.88;8.63;;;;;;;-148.33;100.00;56587.81;5069513;28;20033;-61
2022/04/05 08:24:56;;;;;;;10.48;7.90;;;;;;;-148.33;100.00;56587.81;5068841;28;20361;-61
2022/04/05 08:27:21;;;;;;;11.35;8.95;;;;;;;-148.33;100.00;56587.81;5069349;28;20389;-60
2022/04/05 08:29:46;;;;;;;12.02;8.13;;;;;;;-148.33;100.00;56587.81;5068896;28;20028;-61
2022/04/05 08:32:11;;;;;;;14.77;8.00;;;;;;;-148.33;100.00;56587.81;5061676;28;20090;-61
2022/04/05 08:34:41;;;;;;;10.52;8.40;;;;;;;-148.33;100.00;56587.81;5050177;28;20040;-61
2022/04/05 08:37:08;;;;;;;9.50;8.50;;;;;;;-148.33;100.00;56587.81;5049304;28;20031;-60
2022/04/05 08:39:36;;;;;;;11.15;8.40;;;;;;;-148.33;100.00;56587.81;5050144;28;20064;-60
2022/04/05 08:42:03;;;;;;;11.20;8.50;;;;;;;-148.33;100.00;56587.81;5049561;28;20029;-59
2022/04/05 08:44:29;;;;;;;12.50;8.13;;;;;;;-148.33;100.00;56587.81;5049885;28;20029;-61
2022/04/05 08:46:54;;;;;;;10.48;8.32;;;;;;;-148.33;100.00;56587.81;5050016;28;20064;-61
2022/04/05 08:49:21;;;;;;;9.48;8.00;;;;;;;-148.33;100.00;56587.81;5049628;28;20122;-61
2022/04/05 08:51:46;;;;;;;8.98;7.40;;;;;;;-148.33;100.00;56587.81;5031562;28;20057;-60
2022/04/05 08:54:12;;;;;;;9.48;8.25;;;;;;;-148.33;100.00;56587.81;5049583;28;20527;-61
2022/04/05 08:56:37;;;;;;;10.10;7.50;;;;;;;-148.33;100.00;56587.81;5050168;28;20044;-61
2022/04/05 08:59:02;;;;;;;13.90;8.00;;;;;;;-148.33;100.00;56587.81;5048892;28;20103;-61
2022/04/05 09:01:29;;;;;;;9.20;6.85;;;;;;;-148.33;100.00;56587.81;5049386;28;20025;-59
2022/04/05 09:03:56;;;;;;;8.82;7.93;;;;;;;-148.33;100.00;56587.81;5049737;28;20098;-61
2022/04/05 09:06:25;;;;;;;10.27;7.43;;;;;;;-148.33;100.00;56587.81;5049000;28;20056;-61
2022/04/05 09:08:51;;;;;;;8.40;7.22;;;;;;;-148.33;100.00;56587.81;5049254;28;20112;-61
2022/04/05 09:11:20;;;;;;;9.05;7.07;;;;;;;-148.33;100.00;56587.81;5049410;28;20108;-60
2022/04/05 09:13:59;;;;;;;8.40;6.55;;;;;;;-148.33;100.00;56587.81;5048628;28;20021;-60
2022/04/05 09:16:32;;;;;;;8.75;7.63;;;;;;;-148.33;100.00;56587.81;5062120;28;20559;-60
2022/04/05 09:19:09;;;;;;;8.70;7.50;;;;;;;-148.33;100.00;56587.81;5068498;28;20027;-61
2022/04/05 09:21:57;;;;;;;7.82;7.00;;;;;;;-148.33;100.00;56587.81;5068538;28;20035;-60
2022/04/05 09:24:32;;;;;;;8.60;6.93;;;;;;;-148.33;100.00;56587.81;5068249;28;20036;-61
2022/04/05 09:26:58;;;;;;;9.52;6.93;;;;;;;-148.33;100.00;56587.81;5068143;28;20017;-61
2022/04/05 09:29:43;;;;;;;8.82;7.70;;;;;;;-148.33;100.00;56587.81;5067744;28;20024;-60
2022/04/05 09:32:10;;;;;;;8.25;6.93;;;;;;;-148.33;100.00;56587.81;5068172;28;20089;-60
2022/04/05 09:34:50;;;;;;;11.43;7.90;;;;;;;-148.33;100.00;56587.81;5067963;28;20028;-61
2022/04/05 09:37:17;;;;;;;9.57;7.55;;;;;;;-148.33;100.00;56587.81;5068036;28;20384;-59
2022/04/05 09:39:43;;;;;;;8.80;7.90;;;;;;;-148.33;100.00;56587.81;5067888;28;20036;-61
2022/04/05 09:42:09;;;;;;;8.90;7.63;;;;;;;-148.33;100.00;56587.81;5049848;28;20028;-61
2022/04/05 09:44:40;;;;;;;12.18;8.20;;;;;;;-148.33;100.00;56587.81;5068389;28;20025;-61
2022/04/05 09:47:20;;;;;;;8.23;7.25;;;;;;;-148.33;100.00;56587.81;5068055;28;20033;-60
2022/04/05 09:49:48;;;;;;;8.35;7.55;;;;;;;-148.33;100.00;56587.81;5067742;28;20028;-60
2022/04/05 09:52:30;;;;;;;12.43;7.57;;;;;;;-148.33;100.00;56587.81;5068161;28;20498;-60
2022/04/05 09:55:07;;;;;;;8.63;7.78;;;;;;;-148.33;100.00;56587.81;5068391;28;20383;-61
2022/04/05 09:57:32;;;;;;;9.57;8.65;;;;;;;-148.33;100.00;56587.81;5068126;28;20078;-60
2022/04/05 10:00:08;;;;;;;11.13;8.90;;;;;;;-148.33;100.00;56587.81;5067902;28;20032;-60
2022/04/05 10:02:34;;;;;;;10.40;7.30;;;;;;;-148.33;100.00;56587.81;5067129;28;20052;-61
2022/04/05 10:05:09;;;;;;;8.65;7.93;;;;;;;-148.33;100.00;56587.81;5067725;28;20054;-61
2022/04/05 10:07:36;;;;;;;9.45;8.45;;;;;;;-148.33;100.00;56587.81;5068077;28;20036;-61
2022/04/05 10:10:07;;;;;;;8.63;7.72;;;;;;;-148.33;100.00;56587.81;5067790;28;20107;-60
2022/04/05 10:12:33;;;;;;;8.23;7.22;;;;;;;-148.33;100.00;56587.81;5067751;28;20390;-61
2022/04/05 10:14:59;;;;;;;8.23;7.47;;;;;;;-148.33;100.00;56587.81;5068076;28;20111;-61
2022/04/05 10:17:26;;;;;;;8.07;7.28;;;;;;;-148.33;100.00;56587.81;5068213;28;20033;-60
2022/04/05 10:19:56;;;;;;;8.40;7.57;;;;;;;-148.33;100.00;56587.81;5067776;28;20025;-61
2022/04/05 10:22:22;;;;;;;10.35;7.88;;;;;;;-148.33;100.00;56587.81;5067964;28;20024;-61
2022/04/05 10:24:52;;;;;;;10.50;8.38;;;;;;;-148.33;100.00;56587.81;5058328;28;20079;-61
2022/04/05 10:27:18;;;;;;;8.15;7.25;;;;;;;-148.33;100.00;56587.81;5052109;28;20025;-61
2022/04/05 10:29:44;;;;;;;8.27;7.18;;;;;;;-148.33;100.00;56587.81;5052268;28;20098;-59
2022/04/05 10:32:41;;;;;;;9.88;6.30;;;;;;;-148.33;100.00;56587.81;5052231;28;20029;-60
2022/04/05 10:35:08;;;;;;;9.00;7.18;;;;;;;-148.33;100.00;56587.81;5051504;28;20059;-61
2022/04/05 10:37:36;;;;;;;8.50;6.47;;;;;;;-148.33;100.00;56587.81;5052084;28;20473;-60
2022/04/05 10:40:01;;;;;;;7.75;6.22;;;;;;;-148.33;100.00;56587.81;5052259;28;20083;-61
2022/04/05 10:42:35;;;;;;;7.93;5.88;;;;;;;-148.33;100.00;56587.81;5051872;28;20370;-60
2022/04/05 10:45:17;;;;;;;7.18;6.47;;;;;;;-148.33;100.00;56587.81;5051987;28;20032;-61
2022/04/05 10:48:13;;;;;;;7.28;6.60;;;;;;;-148.33;100.00;56587.81;5051864;28;20033;-61
2022/04/05 10:50:45;;;;;;;7.70;6.50;;;;;;;-148.33;100.00;56587.81;5052151;28;20048;-59
2022/04/05 10:53:11;;;;;;;8.35;6.05;;;;;;;-148.33;100.00;56587.81;5051874;28;20477;-61
2022/04/05 10:56:07;;;;;;;7.55;6.28;;;;;;;-148.33;100.00;56587.81;5051978;28;20328;-61